Portada
METAR-TAF:

METAR-TAF

Aeroports :

Besiers, França

latitud: 43-19N, longitud: 003-21E, altitud: 17 m

Observació

L'informe es va fer fa 22 minuts, a les 17:00 UTC
Vent 3 kt del Oest/Sud-Oest
Temperatura 20°C
Humitat 73%
Pressió 1018 hPa
Visibilitat 10 km o més
sense núvols per sota de 1500 mi sense presència de cumulonimbus.

METAR: LFMU 191700Z AUTO 25003KT CAVOK 20/15 Q1018 NOSIG

Hora: 19:22 (17:22 UTC)

Pronòstic

L'informe es va fer fa 3 hores i 22 minuts, a les 14:00 UTC
Pronòstic vàlid del 19 a les 15 UTC al 20 a les 15 UTC
Vent 5 kt del Oest/Nord-Oest
Visibilitat 10 km o més
sense núvols per sota de 1500 mi sense presència de cumulonimbus.
Probabilitat 30% :
Temporalment
l' 20 a les 01 UTC al 20 a les 07 UTC
Visibilitat: 2000 m
Cel ennuvolat a una alçada de 1000 ft
boirina

TAF: LFMU 191400Z 1915/2015 29005KT CAVOK PROB30 TEMPO 2001/2007 2000 BR BKN010

Observacions i pronòstics meteorològics de més de 4000 aeroports (METAR i TAF).

Les estacions disponibles són els punts grocs i vermells al mapa.

Posi el ratolí al punt desitjat per veure el nom de l'estació.

Feu clic per veure les observacions i els pronòstics meteorològics.

Per canviar el mapa: feu clic els botons verds amb una creu de color negre per apropar; al botó verd amb un guió per allunyar la imatge; o en les fletxes verdes per a mapes adjacents.


METAR-TAF: